Time;durP1;ratioP1;P1;durP2;ratioP2;P2;SDS_P1;SDS_P2;PMS_P1;PMS_P2;Temp;Humidity;BMP_temperature;BMP_pressure;BME280_temperature;BME280_humidity;BME280_pressure;Samples;Min_cycle;Max_cycle;Signal;HPM_P1;HPM_P2
2022/03/01 00:00:14;;;;;;;17.20;8.73;;;;;;;-0.01;55.47;97549.75;4915965;29;20059;-79
2022/03/01 00:02:41;;;;;;;15.68;8.52;;;;;;;-0.07;54.88;97545.28;4915318;29;20047;-80
2022/03/01 00:05:08;;;;;;;17.27;9.10;;;;;;;0.04;56.58;97546.41;4916643;29;20052;-80
2022/03/01 00:07:34;;;;;;;14.70;8.15;;;;;;;-0.03;55.21;97541.13;4916001;29;20040;-79
2022/03/01 00:10:01;;;;;;;16.15;8.73;;;;;;;-0.04;55.82;97550.22;4916858;29;20048;-79
2022/03/01 00:12:28;;;;;;;15.75;8.55;;;;;;;-0.09;56.39;97548.19;4915015;29;20044;-79
2022/03/01 00:14:54;;;;;;;16.50;8.75;;;;;;;-0.15;56.87;97551.75;4908878;29;20060;-79
2022/03/01 00:17:23;;;;;;;18.83;8.65;;;;;;;-0.14;55.96;97556.06;4915553;29;20062;-79
2022/03/01 00:19:49;;;;;;;16.15;8.30;;;;;;;-0.20;57.20;97542.75;4915653;29;20135;-79
2022/03/01 00:22:16;;;;;;;17.55;8.25;;;;;;;-0.16;54.68;97547.41;4914898;29;20055;-80
2022/03/01 00:24:42;;;;;;;17.35;8.35;;;;;;;-0.29;54.71;97543.03;4915524;29;20052;-79
2022/03/01 00:27:09;;;;;;;17.20;8.77;;;;;;;-0.20;54.90;97542.75;4915778;29;20052;-79
2022/03/01 00:29:36;;;;;;;15.63;7.53;;;;;;;-0.23;56.42;97541.31;4915481;29;20051;-80
2022/03/01 00:32:02;;;;;;;17.40;8.45;;;;;;;-0.27;56.40;97534.75;4915917;29;20063;-80
2022/03/01 00:34:30;;;;;;;16.05;7.93;;;;;;;-0.27;56.50;97545.47;4915429;29;20451;-80
2022/03/01 00:36:56;;;;;;;17.52;8.80;;;;;;;-0.16;56.12;97538.56;4916483;29;20090;-80
2022/03/01 00:39:23;;;;;;;15.32;8.02;;;;;;;-0.28;57.89;97533.94;4906623;29;20051;-80
2022/03/01 00:41:49;;;;;;;17.38;7.88;;;;;;;-0.23;56.75;97537.81;4915261;29;20075;-81
2022/03/01 00:44:16;;;;;;;16.88;8.10;;;;;;;-0.21;57.14;97533.06;4914857;29;20121;-80
2022/03/01 00:46:42;;;;;;;16.20;8.10;;;;;;;0.01;56.09;97520.91;4915344;29;20594;-81
2022/03/01 00:49:09;;;;;;;16.60;8.23;;;;;;;0.06;56.01;97528.28;4914371;29;20099;-80
2022/03/01 00:51:37;;;;;;;18.23;8.68;;;;;;;0.10;54.92;97530.28;4914251;29;20040;-80
2022/03/01 00:54:03;;;;;;;13.27;7.43;;;;;;;-0.10;55.83;97524.31;4914062;29;20052;-79
2022/03/01 00:56:31;;;;;;;14.85;7.43;;;;;;;-0.18;56.22;97527.28;4913098;29;20048;-80
2022/03/01 00:58:58;;;;;;;15.95;7.68;;;;;;;-0.20;56.16;97524.00;4915488;29;20060;-80
2022/03/01 01:01:25;;;;;;;12.52;6.60;;;;;;;-0.16;54.29;97520.66;4913458;29;20400;-81
2022/03/01 01:03:51;;;;;;;14.75;7.32;;;;;;;-0.12;55.17;97516.50;4914230;29;20044;-80
2022/03/01 01:06:18;;;;;;;16.25;7.88;;;;;;;-0.13;54.64;97519.41;4913119;29;20051;-80
2022/03/01 01:08:46;;;;;;;14.77;7.00;;;;;;;-0.22;55.60;97526.06;4909129;29;20052;-80
2022/03/01 01:11:13;;;;;;;14.25;7.30;;;;;;;-0.06;55.17;97526.31;4905397;29;20063;-80
2022/03/01 01:13:40;;;;;;;13.38;6.97;;;;;;;-0.16;56.81;97514.47;4913626;29;20386;-80
2022/03/01 01:16:06;;;;;;;14.38;7.18;;;;;;;-0.32;55.76;97511.31;4914083;29;20056;-79
2022/03/01 01:18:33;;;;;;;15.15;7.03;;;;;;;-0.39;56.61;97507.91;4914518;29;20048;-80
2022/03/01 01:21:00;;;;;;;12.18;6.90;;;;;;;-0.39;58.86;97505.22;4914396;29;20572;-80
2022/03/01 01:23:26;;;;;;;13.27;7.05;;;;;;;-0.36;57.38;97502.13;4912669;29;20055;-80
2022/03/01 01:25:54;;;;;;;13.23;6.97;;;;;;;-0.51;57.94;97501.63;4914881;29;20059;-81
2022/03/01 01:28:21;;;;;;;13.07;6.85;;;;;;;-0.51;57.44;97496.28;4913606;29;20056;-80
2022/03/01 01:30:48;;;;;;;13.60;6.65;;;;;;;-0.61;58.12;97501.31;4914605;29;20052;-80
2022/03/01 01:33:14;;;;;;;13.68;6.93;;;;;;;-0.64;59.69;97499.06;4913207;29;20082;-80
2022/03/01 01:35:41;;;;;;;16.48;6.90;;;;;;;-0.46;57.26;97498.31;4914410;29;20047;-79
2022/03/01 01:38:07;;;;;;;13.55;6.07;;;;;;;-0.59;56.51;97500.03;4914191;29;20052;-80
2022/03/01 01:40:35;;;;;;;9.60;5.15;;;;;;;-0.62;59.14;97488.97;4922592;29;20051;-82
2022/03/01 01:43:05;;;;;;;13.02;6.38;;;;;;;-0.50;55.98;97489.91;4931759;29;20051;-80
2022/03/01 01:45:32;;;;;;;13.50;6.10;;;;;;;-0.38;57.18;97489.97;4918051;29;20056;-81
2022/03/01 01:48:00;;;;;;;10.20;5.63;;;;;;;-0.62;57.08;97489.81;4913691;29;20059;-81
2022/03/01 01:50:28;;;;;;;13.35;5.95;;;;;;;-0.69;56.75;97482.84;4911789;29;20057;-81
2022/03/01 01:52:55;;;;;;;12.90;6.28;;;;;;;-0.69;56.89;97483.66;4912983;29;20052;-79
2022/03/01 01:55:23;;;;;;;12.57;6.32;;;;;;;-0.77;58.51;97488.50;4912239;29;20056;-81
2022/03/01 01:57:50;;;;;;;9.60;5.75;;;;;;;-0.86;58.35;97488.75;4912878;29;20055;-80
2022/03/01 02:00:18;;;;;;;11.35;5.88;;;;;;;-0.75;58.18;97479.19;4912767;29;20052;-79
2022/03/01 02:02:45;;;;;;;10.55;5.88;;;;;;;-0.79;57.92;97473.47;4912788;29;20048;-80
2022/03/01 02:05:13;;;;;;;12.15;5.53;;;;;;;-0.82;57.88;97463.22;4912936;29;20487;-80
2022/03/01 02:07:45;;;;;;;11.45;5.95;;;;;;;-0.95;59.49;97463.31;4912370;29;20055;-81
2022/03/01 02:10:12;;;;;;;11.00;5.72;;;;;;;-0.86;58.98;97472.69;4912505;29;20052;-80
2022/03/01 02:12:39;;;;;;;16.45;5.90;;;;;;;-0.78;57.58;97463.59;4912155;29;20055;-81
2022/03/01 02:15:06;;;;;;;10.98;5.20;;;;;;;-0.66;56.87;97466.38;4912342;29;20056;-79
2022/03/01 02:17:34;;;;;;;10.35;5.60;;;;;;;-0.56;56.02;97466.69;4911923;29;20041;-80
2022/03/01 02:20:06;;;;;;;12.35;6.00;;;;;;;-0.73;57.99;97457.56;4912303;29;20052;-80
2022/03/01 02:22:34;;;;;;;12.00;6.07;;;;;;;-0.88;59.70;97448.03;4911910;29;20059;-80
2022/03/01 02:25:01;;;;;;;13.98;5.90;;;;;;;-0.82;58.07;97452.50;4912060;29;20051;-80
2022/03/01 02:27:27;;;;;;;16.10;6.32;;;;;;;-0.94;58.15;97456.94;4912927;29;20515;-79
2022/03/01 02:29:54;;;;;;;12.88;5.70;;;;;;;-1.06;59.26;97450.63;4911984;29;20052;-79
2022/03/01 02:32:20;;;;;;;13.27;5.60;;;;;;;-1.05;59.18;97446.94;4912322;29;20059;-80
2022/03/01 02:34:48;;;;;;;10.30;5.60;;;;;;;-1.08;58.28;97453.53;4912235;29;20048;-80
2022/03/01 02:37:16;;;;;;;11.65;5.70;;;;;;;-0.97;60.08;97460.03;4912553;29;20044;-79
2022/03/01 02:39:42;;;;;;;11.23;5.80;;;;;;;-1.02;58.31;97451.84;4912183;29;20056;-81
2022/03/01 02:42:09;;;;;;;11.13;5.57;;;;;;;-1.11;58.78;97451.28;4911808;29;20048;-81
2022/03/01 02:44:36;;;;;;;10.32;5.38;;;;;;;-0.99;57.69;97446.09;4910810;29;20048;-80
2022/03/01 02:47:03;;;;;;;11.70;5.55;;;;;;;-1.15;58.78;97446.59;4911465;29;20051;-79
2022/03/01 02:49:29;;;;;;;11.43;5.80;;;;;;;-1.13;59.18;97449.88;4912502;29;20222;-80
2022/03/01 02:51:56;;;;;;;13.10;5.30;;;;;;;-1.17;60.13;97456.69;4911867;29;20062;-80
2022/03/01 02:54:24;;;;;;;11.23;5.70;;;;;;;-1.08;58.83;97450.06;4902319;29;20448;-79
2022/03/01 02:56:50;;;;;;;9.18;4.72;;;;;;;-1.10;59.22;97450.28;4910464;29;20044;-82
2022/03/01 02:59:17;;;;;;;9.63;4.93;;;;;;;-1.09;60.29;97453.75;4912065;29;20048;-80
2022/03/01 03:01:44;;;;;;;10.98;5.65;;;;;;;-1.15;58.95;97452.78;4911812;29;20067;-83
2022/03/01 03:04:10;;;;;;;9.57;5.05;;;;;;;-1.23;58.45;97450.34;4910912;29;20052;-80
2022/03/01 03:06:37;;;;;;;9.07;5.07;;;;;;;-1.20;59.65;97446.41;4895108;29;20504;-82
2022/03/01 03:09:03;;;;;;;11.57;5.28;;;;;;;-1.15;58.86;97447.44;4911205;29;20056;-83
2022/03/01 03:11:31;;;;;;;10.70;5.28;;;;;;;-1.20;58.59;97449.09;4912090;29;20505;-83
2022/03/01 03:13:58;;;;;;;14.20;5.53;;;;;;;-1.13;59.15;97445.34;4910112;29;20499;-81
2022/03/01 03:16:27;;;;;;;10.25;4.45;;;;;;;-0.97;58.18;97449.34;4910481;29;20040;-81
2022/03/01 03:18:53;;;;;;;10.10;4.63;;;;;;;-1.02;58.08;97438.47;4911421;29;20194;-81
2022/03/01 03:21:20;;;;;;;11.63;5.10;;;;;;;-1.08;58.55;97432.16;4911941;29;20554;-79
2022/03/01 03:23:47;;;;;;;8.57;4.95;;;;;;;-1.16;58.60;97439.59;4911007;29;20056;-82
2022/03/01 03:26:13;;;;;;;12.48;5.50;;;;;;;-1.27;59.30;97434.97;4911380;29;20059;-82
2022/03/01 03:28:42;;;;;;;9.95;5.10;;;;;;;-1.28;60.43;97433.34;4911419;29;20087;-82
2022/03/01 03:31:08;;;;;;;10.80;5.60;;;;;;;-1.24;59.46;97432.69;4909892;29;20128;-81
2022/03/01 03:33:35;;;;;;;16.85;5.70;;;;;;;-1.22;59.27;97435.13;4911594;29;20523;-81
2022/03/01 03:36:03;;;;;;;7.35;4.10;;;;;;;-1.21;58.92;97426.06;4910618;29;20063;-82
2022/03/01 03:38:29;;;;;;;9.57;4.90;;;;;;;-1.26;58.30;97423.22;4901630;29;20048;-81
2022/03/01 03:40:56;;;;;;;10.88;5.38;;;;;;;-1.29;59.95;97423.69;4911329;29;20098;-83
2022/03/01 03:43:23;;;;;;;10.98;5.15;;;;;;;-1.24;60.11;97429.19;4909367;29;20131;-83
2022/03/01 03:45:51;;;;;;;12.05;5.25;;;;;;;-1.27;60.21;97437.63;4911069;29;20063;-82
2022/03/01 03:48:17;;;;;;;10.02;5.18;;;;;;;-1.30;60.17;97428.22;4910912;29;20055;-82
2022/03/01 03:50:44;;;;;;;14.20;5.53;;;;;;;-1.24;60.45;97427.34;4911640;29;20048;-81
2022/03/01 03:53:10;;;;;;;34.13;10.65;;;;;;;-1.35;61.11;97436.88;4910832;29;20055;-80
2022/03/01 03:55:37;;;;;;;11.77;5.95;;;;;;;-1.41;60.22;97432.41;4911888;29;20078;-82
2022/03/01 03:58:04;;;;;;;12.45;5.50;;;;;;;-1.39;59.79;97434.84;4909955;29;20062;-80
2022/03/01 04:00:31;;;;;;;13.10;6.13;;;;;;;-1.41;61.13;97428.88;4912031;29;20067;-80
2022/03/01 04:02:59;;;;;;;10.73;5.50;;;;;;;-1.32;60.29;97431.06;4911152;29;20529;-79
2022/03/01 04:05:26;;;;;;;11.65;5.78;;;;;;;-1.28;61.17;97431.47;4913517;29;20051;-82
2022/03/01 04:07:52;;;;;;;10.98;5.68;;;;;;;-1.37;61.48;97432.75;4914378;29;20519;-82
2022/03/01 04:10:19;;;;;;;10.68;5.80;;;;;;;-1.45;60.27;97425.84;4915324;29;20048;-79
2022/03/01 04:12:46;;;;;;;10.73;5.75;;;;;;;-1.42;59.76;97420.06;4913962;29;20048;-79
2022/03/01 04:15:13;;;;;;;10.05;5.53;;;;;;;-1.45;59.69;97414.34;4914171;29;20062;-82
2022/03/01 04:17:40;;;;;;;11.02;5.97;;;;;;;-1.41;59.94;97416.38;4914910;29;20056;-82
2022/03/01 04:20:10;;;;;;;9.70;5.13;;;;;;;-1.48;61.19;97420.91;4913934;29;20057;-79
2022/03/01 04:22:36;;;;;;;11.77;5.85;;;;;;;-1.55;60.06;97420.16;4914548;29;20589;-78
2022/03/01 04:25:04;;;;;;;9.88;4.90;;;;;;;-1.47;60.29;97416.38;4913598;29;20051;-80
2022/03/01 04:27:32;;;;;;;15.25;6.13;;;;;;;-1.47;61.05;97411.03;4914945;29;20056;-82
2022/03/01 04:29:59;;;;;;;10.32;5.00;;;;;;;-1.40;60.03;97411.84;4913584;29;20052;-82
2022/03/01 04:32:25;;;;;;;11.07;4.80;;;;;;;-1.31;59.68;97413.19;4914168;29;20143;-80
2022/03/01 04:34:52;;;;;;;12.55;5.20;;;;;;;-1.42;61.73;97414.69;4913857;29;20060;-80
2022/03/01 04:37:20;;;;;;;10.65;5.38;;;;;;;-1.54;62.16;97415.63;4914048;29;20051;-79
2022/03/01 04:39:46;;;;;;;12.85;5.43;;;;;;;-1.47;61.20;97409.19;4914397;29;20048;-81
2022/03/01 04:42:13;;;;;;;11.02;5.35;;;;;;;-1.63;60.70;97415.84;4913045;29;20154;-81
2022/03/01 04:44:40;;;;;;;10.82;5.90;;;;;;;-1.64;60.61;97414.22;4898084;29;20135;-79
2022/03/01 04:47:06;;;;;;;9.60;5.20;;;;;;;-1.70;60.46;97412.41;4913045;29;20442;-81
2022/03/01 04:49:33;;;;;;;9.23;4.82;;;;;;;-1.67;61.18;97416.50;4914283;29;20052;-79
2022/03/01 04:52:00;;;;;;;9.38;5.20;;;;;;;-1.72;61.46;97419.00;4913343;29;20063;-80
2022/03/01 04:54:28;;;;;;;13.82;5.63;;;;;;;-1.70;61.77;97411.59;4915107;29;20099;-81
2022/03/01 04:56:54;;;;;;;14.23;5.82;;;;;;;-1.64;62.37;97414.22;4914204;29;20051;-81
2022/03/01 04:59:21;;;;;;;17.42;6.47;;;;;;;-1.69;61.84;97418.56;4914813;29;20059;-79
2022/03/01 05:01:48;;;;;;;11.93;5.63;;;;;;;-1.78;62.19;97419.84;4915119;29;20135;-79
2022/03/01 05:04:14;;;;;;;10.13;5.22;;;;;;;-1.74;62.50;97415.72;4913707;29;20123;-81
2022/03/01 05:06:41;;;;;;;15.75;5.30;;;;;;;-1.67;61.46;97424.50;4914574;29;20052;-80
2022/03/01 05:09:08;;;;;;;13.85;5.75;;;;;;;-1.64;61.27;97421.44;4895622;29;20051;-81
2022/03/01 05:11:36;;;;;;;10.93;5.50;;;;;;;-1.71;61.77;97432.16;4913943;29;20140;-81
2022/03/01 05:14:03;;;;;;;9.77;5.25;;;;;;;-1.75;61.12;97427.44;4910908;29;20056;-79
2022/03/01 05:16:30;;;;;;;13.63;5.63;;;;;;;-1.78;60.88;97427.88;4913941;29;20068;-80
2022/03/01 05:18:56;;;;;;;11.93;6.18;;;;;;;-1.79;61.78;97423.56;4913626;29;20056;-82
2022/03/01 05:21:23;;;;;;;10.35;5.25;;;;;;;-1.83;62.44;97420.50;4913723;29;20091;-80
2022/03/01 05:23:49;;;;;;;12.68;5.78;;;;;;;-1.92;62.16;97409.25;4913006;29;20048;-80
2022/03/01 05:26:16;;;;;;;13.15;6.28;;;;;;;-1.84;61.44;97417.00;4913016;29;20059;-80
2022/03/01 05:28:44;;;;;;;14.80;6.40;;;;;;;-1.85;61.93;97423.38;4913742;29;20043;-80
2022/03/01 05:31:11;;;;;;;12.40;6.32;;;;;;;-1.85;61.48;97410.03;4913112;29;20139;-79
2022/03/01 05:33:38;;;;;;;14.35;6.93;;;;;;;-1.87;61.54;97422.78;4913855;29;20067;-80
2022/03/01 05:36:05;;;;;;;14.40;6.50;;;;;;;-1.78;61.45;97419.84;4895294;29;20064;-80
2022/03/01 05:38:31;;;;;;;16.10;5.97;;;;;;;-1.81;61.36;97429.13;4913792;29;20047;-80
2022/03/01 05:40:58;;;;;;;15.23;6.00;;;;;;;-1.81;61.08;97429.13;4912612;29;20055;-81
2022/03/01 05:43:25;;;;;;;14.63;6.72;;;;;;;-1.85;61.95;97431.38;4912774;29;20052;-80
2022/03/01 05:45:56;;;;;;;14.40;5.88;;;;;;;-1.81;61.76;97428.31;4913340;29;20052;-79
2022/03/01 05:48:22;;;;;;;14.25;6.70;;;;;;;-1.85;61.92;97436.72;4912569;29;20060;-81
2022/03/01 05:50:49;;;;;;;11.48;6.55;;;;;;;-1.82;61.90;97429.34;4912981;29;20063;-80
2022/03/01 05:53:16;;;;;;;12.48;6.47;;;;;;;-1.89;61.78;97424.81;4912549;29;20059;-81
2022/03/01 05:55:42;;;;;;;18.98;9.30;;;;;;;-1.75;60.91;97422.94;4913332;29;20055;-82
2022/03/01 05:58:09;;;;;;;16.08;7.05;;;;;;;-1.81;61.92;97425.63;4912174;29;20079;-82
2022/03/01 06:00:36;;;;;;;12.23;6.50;;;;;;;-1.84;61.03;97427.69;4913988;29;20139;-80
2022/03/01 06:03:04;;;;;;;15.15;6.85;;;;;;;-1.89;61.52;97424.81;4901878;29;20066;-81
2022/03/01 06:05:31;;;;;;;11.77;5.97;;;;;;;-1.90;61.91;97428.53;4913003;29;20495;-81
2022/03/01 06:07:58;;;;;;;10.65;5.78;;;;;;;-1.88;61.56;97426.50;4911966;29;20735;-82
2022/03/01 06:10:25;;;;;;;13.57;6.45;;;;;;;-1.78;61.78;97423.34;4913364;29;20044;-84
2022/03/01 06:12:52;;;;;;;15.77;6.13;;;;;;;-1.79;61.37;97429.72;4912890;29;20056;-80
2022/03/01 06:15:18;;;;;;;12.85;5.78;;;;;;;-1.82;62.42;97424.00;4911961;29;20529;-79
2022/03/01 06:17:45;;;;;;;10.40;5.38;;;;;;;-1.86;60.52;97424.41;4912554;29;20052;-80
2022/03/01 06:20:15;;;;;;;11.85;6.20;;;;;;;-1.77;60.86;97427.66;4911578;29;20063;-81
2022/03/01 06:22:42;;;;;;;13.18;5.88;;;;;;;-1.78;61.94;97431.34;4912361;29;20119;-85
2022/03/01 06:25:10;;;;;;;13.85;7.13;;;;;;;-1.68;61.39;97430.88;4911263;29;20056;-81
2022/03/01 06:27:38;;;;;;;13.18;6.38;;;;;;;-1.73;60.74;97431.53;4912185;29;20155;-80
2022/03/01 06:30:06;;;;;;;10.35;5.55;;;;;;;-1.65;61.18;97430.47;4911345;29;20481;-81
2022/03/01 06:32:32;;;;;;;13.63;6.75;;;;;;;-1.74;60.96;97437.09;4912568;29;20050;-81
2022/03/01 06:34:59;;;;;;;12.50;6.43;;;;;;;-1.66;61.23;97429.66;4911932;29;20465;-80
2022/03/01 06:37:27;;;;;;;17.80;8.10;;;;;;;-1.58;62.35;97436.59;4912306;29;20048;-79
2022/03/01 06:39:54;;;;;;;19.77;8.38;;;;;;;-1.54;61.21;97442.34;4887565;29;20697;-82
2022/03/01 06:42:21;;;;;;;11.38;6.15;;;;;;;-1.59;62.62;97446.47;4877010;29;20059;-80
2022/03/01 06:44:48;;;;;;;14.30;6.20;;;;;;;-1.35;60.21;97442.22;4868800;29;20057;-81
2022/03/01 06:47:16;;;;;;;11.57;6.63;;;;;;;-1.18;59.54;97453.19;4873103;29;20048;-83
2022/03/01 06:49:43;;;;;;;14.60;6.47;;;;;;;-1.11;61.00;97453.16;4874521;29;20532;-80
2022/03/01 06:52:10;;;;;;;16.27;7.15;;;;;;;-1.07;61.11;97459.69;4874136;29;20049;-80
2022/03/01 06:54:39;;;;;;;15.75;6.72;;;;;;;-0.87;60.33;97465.72;4875866;29;20061;-79
2022/03/01 06:57:05;;;;;;;14.57;6.25;;;;;;;-0.72;59.09;97460.06;4873510;29;20147;-80
2022/03/01 06:59:32;;;;;;;14.65;6.00;;;;;;;-0.69;60.61;97464.94;4874265;29;20484;-81
2022/03/01 07:01:59;;;;;;;13.93;5.78;;;;;;;-0.58;57.66;97463.41;4875392;29;20049;-81
2022/03/01 07:04:26;;;;;;;16.67;6.07;;;;;;;-0.56;58.38;97461.34;4874253;29;20072;-81
2022/03/01 07:06:54;;;;;;;12.70;5.90;;;;;;;-0.50;58.56;97457.78;4877498;29;20080;-81
2022/03/01 07:09:21;;;;;;;12.05;6.15;;;;;;;-0.65;61.64;97468.00;4872346;29;20412;-83
2022/03/01 07:11:49;;;;;;;11.80;5.68;;;;;;;-0.51;57.41;97472.22;4884582;29;20503;-79
2022/03/01 07:14:18;;;;;;;10.35;5.32;;;;;;;-0.45;56.41;97471.31;4886611;29;20052;-82
2022/03/01 07:16:45;;;;;;;10.88;5.05;;;;;;;-0.36;56.67;97470.00;4894386;29;20503;-81
2022/03/01 07:19:13;;;;;;;13.88;5.60;;;;;;;-0.46;58.53;97467.03;4884107;29;20766;-81
2022/03/01 07:21:40;;;;;;;10.88;5.78;;;;;;;-0.48;59.09;97466.41;4908851;29;20087;-81
2022/03/01 07:24:07;;;;;;;11.95;5.97;;;;;;;-0.24;56.70;97470.09;4897194;29;20053;-82
2022/03/01 07:26:34;;;;;;;12.63;5.57;;;;;;;-0.09;56.07;97477.75;4894237;29;20056;-80
2022/03/01 07:29:07;;;;;;;11.70;6.35;;;;;;;-0.14;57.50;97482.97;4882418;29;20052;-81
2022/03/01 07:31:34;;;;;;;14.60;6.25;;;;;;;-0.08;59.47;97484.75;4894756;29;20068;-81
2022/03/01 07:34:06;;;;;;;12.93;6.38;;;;;;;0.03;56.52;97478.66;4886239;29;20063;-81
2022/03/01 07:36:33;;;;;;;11.13;6.10;;;;;;;0.00;58.33;97481.78;4893328;29;20048;-81
2022/03/01 07:38:59;;;;;;;13.10;6.30;;;;;;;0.12;55.59;97485.34;4891687;29;20059;-81
2022/03/01 07:41:26;;;;;;;11.85;5.93;;;;;;;0.21;57.82;97485.88;4902312;29;20767;-80
2022/03/01 07:43:54;;;;;;;11.13;5.68;;;;;;;0.25;56.48;97490.53;4890691;29;20135;-81
2022/03/01 07:46:22;;;;;;;13.85;5.93;;;;;;;0.29;55.15;97492.78;4897540;29;20132;-80
2022/03/01 07:48:50;;;;;;;9.98;5.38;;;;;;;0.37;54.73;97495.16;4900583;29;20052;-81
2022/03/01 07:51:18;;;;;;;10.73;5.53;;;;;;;0.47;54.91;97492.75;4896856;29;20045;-81
2022/03/01 07:53:47;;;;;;;11.93;5.45;;;;;;;0.39;56.77;97495.75;4891033;29;20123;-81
2022/03/01 07:56:20;;;;;;;13.90;6.00;;;;;;;0.30;57.13;97492.56;4877229;29;20064;-81
2022/03/01 07:58:52;;;;;;;10.35;5.60;;;;;;;0.34;56.03;97499.09;4892611;29;20084;-82
2022/03/01 08:01:21;;;;;;;10.93;5.95;;;;;;;0.38;57.12;97492.25;4902950;29;20060;-81
2022/03/01 08:04:06;;;;;;;14.55;6.85;;;;;;;0.41;57.46;97499.00;4877208;29;20654;-82
2022/03/01 08:06:39;;;;;;;11.98;6.10;;;;;;;0.45;58.55;97500.22;4887627;29;20547;-81
2022/03/01 08:09:09;;;;;;;10.57;5.95;;;;;;;0.51;56.61;97496.63;4904948;29;20071;-83
2022/03/01 08:12:20;;;;;;;10.45;6.03;;;;;;;0.48;57.09;97494.41;4902529;29;20080;-84
2022/03/01 08:20:00;;;;;;;9.40;5.25;;;;;;;0.72;53.50;97495.31;4943980;23;20490;-84
2022/03/01 08:22:28;;;;;;;14.10;6.15;;;;;;;0.84;54.34;97506.91;4909589;29;20135;-83
2022/03/01 08:24:54;;;;;;;7.88;4.97;;;;;;;1.04;54.41;97495.88;4902709;29;20055;-82
2022/03/01 08:27:22;;;;;;;13.43;5.68;;;;;;;1.52;53.15;97506.50;4917894;29;20123;-81
2022/03/01 08:29:49;;;;;;;10.50;5.90;;;;;;;2.28;50.19;97499.31;4900584;29;20703;-82
2022/03/01 08:32:16;;;;;;;12.60;5.43;;;;;;;3.24;49.86;97496.06;4897196;29;20131;-82
2022/03/01 08:34:44;;;;;;;11.48;5.30;;;;;;;3.69;48.25;97503.25;4917824;29;20107;-81
2022/03/01 08:37:14;;;;;;;13.50;5.68;;;;;;;3.63;47.58;97494.25;4906595;29;20048;-81
2022/03/01 08:39:41;;;;;;;9.57;5.50;;;;;;;3.39;46.99;97494.44;4918498;29;20091;-82
2022/03/01 08:42:09;;;;;;;8.93;4.70;;;;;;;3.70;47.00;97494.09;4919321;29;20091;-83
2022/03/01 08:44:35;;;;;;;12.68;4.80;;;;;;;4.78;46.09;97495.28;4902465;29;20459;-82
2022/03/01 08:47:03;;;;;;;10.93;5.18;;;;;;;6.00;41.85;97495.56;4901116;29;20048;-79
2022/03/01 08:49:29;;;;;;;9.55;4.93;;;;;;;6.84;38.99;97494.66;4899440;29;20045;-82
2022/03/01 08:51:56;;;;;;;10.13;5.45;;;;;;;7.32;38.56;97487.16;4893450;29;20519;-81
2022/03/01 08:54:24;;;;;;;9.00;4.90;;;;;;;7.81;38.01;97486.63;4895268;29;20500;-81
2022/03/01 08:56:51;;;;;;;10.65;5.38;;;;;;;7.82;35.90;97485.53;4893570;29;20500;-81
2022/03/01 08:59:18;;;;;;;10.95;5.47;;;;;;;7.79;35.42;97477.97;4895728;29;20060;-81
2022/03/01 09:01:46;;;;;;;11.73;5.35;;;;;;;7.89;35.87;97469.81;4901235;29;20473;-84
2022/03/01 09:04:15;;;;;;;7.97;5.03;;;;;;;8.03;35.33;97473.56;4893395;29;20052;-82
2022/03/01 09:06:41;;;;;;;9.85;4.70;;;;;;;8.09;34.07;97467.09;4900433;29;20766;-82
2022/03/01 09:09:08;;;;;;;9.00;4.75;;;;;;;8.36;35.39;97463.25;4896180;29;20695;-79
2022/03/01 09:11:36;;;;;;;10.25;5.15;;;;;;;8.48;34.39;97466.44;4895335;29;20055;-78
2022/03/01 09:14:03;;;;;;;11.27;5.65;;;;;;;8.68;35.37;97462.03;4908714;29;20048;-80
2022/03/01 09:16:30;;;;;;;9.27;5.40;;;;;;;8.77;34.82;97465.78;4914323;29;20072;-78
2022/03/01 09:18:59;;;;;;;11.57;5.05;;;;;;;8.56;35.66;97465.88;4895359;29;20056;-79
2022/03/01 09:21:25;;;;;;;11.63;5.43;;;;;;;8.35;34.13;97459.69;4916361;29;20052;-81
2022/03/01 09:23:52;;;;;;;10.15;5.35;;;;;;;8.00;35.11;97459.78;4904558;29;20083;-81
2022/03/01 09:26:21;;;;;;;9.43;5.43;;;;;;;7.68;34.38;97450.06;4915771;29;20131;-80
2022/03/01 09:28:51;;;;;;;11.00;5.25;;;;;;;7.62;35.57;97455.72;4895057;29;20455;-79
2022/03/01 09:31:18;;;;;;;8.70;5.25;;;;;;;7.73;35.83;97457.38;4911651;29;20083;-79
2022/03/01 09:34:01;;;;;;;9.75;5.38;;;;;;;8.04;35.15;97453.53;4916218;29;20050;-82
2022/03/01 09:36:48;;;;;;;8.98;4.95;;;;;;;8.40;35.14;97445.28;4912715;29;20099;-81
2022/03/01 09:39:15;;;;;;;8.38;4.88;;;;;;;8.92;35.49;97445.88;4913093;29;20054;-78
2022/03/01 09:41:42;;;;;;;17.65;11.23;;;;;;;9.46;32.90;97443.06;4903134;29;20059;-80
2022/03/01 09:44:12;;;;;;;11.88;5.30;;;;;;;9.39;32.46;97440.66;4876387;29;20626;-80
2022/03/01 09:46:39;;;;;;;7.95;4.65;;;;;;;9.03;33.45;97442.84;4881518;29;20048;-79
2022/03/01 09:51:48;;;;;;;8.88;5.30;;;;;;;9.10;33.32;97432.44;4899627;29;20049;-79
2022/03/01 09:54:15;;;;;;;10.00;5.00;;;;;;;9.20;33.75;97428.03;4880509;29;20468;-79
2022/03/01 09:57:07;;;;;;;8.90;4.85;;;;;;;9.50;31.83;97425.09;4892675;29;20055;-84
2022/03/01 09:59:35;;;;;;;7.35;4.70;;;;;;;9.76;33.05;97416.69;4907239;29;20071;-80
2022/03/01 10:02:06;;;;;;;10.40;5.05;;;;;;;10.30;30.64;97421.06;4898897;29;20045;-82
2022/03/01 10:04:34;;;;;;;9.63;4.72;;;;;;;11.02;31.07;97420.97;4902761;29;20399;-81
2022/03/01 10:07:03;;;;;;;9.35;4.50;;;;;;;11.46;31.06;97415.91;4883773;29;20044;-81
2022/03/01 10:09:30;;;;;;;7.75;4.72;;;;;;;12.04;27.82;97408.41;4902092;29;20498;-80
2022/03/01 10:12:06;;;;;;;7.03;3.75;;;;;;;12.52;29.43;97417.00;4902169;29;20049;-81
2022/03/01 10:14:37;;;;;;;7.80;4.20;;;;;;;12.83;27.02;97414.44;4879275;29;20059;-80
2022/03/01 10:17:13;;;;;;;7.72;4.55;;;;;;;13.63;25.67;97418.38;4897670;29;20032;-81
2022/03/01 10:19:44;;;;;;;7.80;4.53;;;;;;;14.32;27.07;97420.69;4902325;29;20052;-83
2022/03/01 10:22:12;;;;;;;8.75;4.65;;;;;;;14.69;25.03;97418.59;4908289;29;20419;-80
2022/03/01 10:24:48;;;;;;;8.10;4.78;;;;;;;14.99;22.88;97425.13;4882477;29;20492;-81
2022/03/01 10:27:15;;;;;;;7.35;4.63;;;;;;;15.26;24.06;97419.31;4895676;29;20052;-80
2022/03/01 10:29:48;;;;;;;9.75;4.63;;;;;;;15.64;26.04;97410.44;4903979;29;20048;-81
2022/03/01 10:32:18;;;;;;;9.68;4.80;;;;;;;15.40;23.53;97400.78;4944290;28;20099;-82
2022/03/01 10:35:06;;;;;;;7.90;4.22;;;;;;;15.11;23.35;97397.84;4946224;28;20109;-81
2022/03/01 10:37:34;;;;;;;8.60;4.38;;;;;;;15.02;23.19;97392.34;4937660;29;20126;-82
2022/03/01 10:40:27;;;;;;;6.68;4.20;;;;;;;14.78;22.20;97401.03;4936959;29;20067;-80
2022/03/01 10:43:09;;;;;;;7.40;4.50;;;;;;;14.59;23.67;97392.28;5084254;23;20078;-83
2022/03/01 10:45:40;;;;;;;9.50;4.28;;;;;;;14.48;26.07;97394.50;5725746;23;20089;-82
2022/03/01 10:48:08;;;;;;;14.57;4.47;;;;;;;14.33;25.78;97384.75;4919072;29;20059;-82
2022/03/01 10:50:35;;;;;;;9.23;4.18;;;;;;;13.93;23.01;97383.13;4922296;29;20052;-82
2022/03/01 10:53:03;;;;;;;10.25;3.90;;;;;;;14.03;27.78;97385.59;4901345;29;20088;-82
2022/03/01 10:55:32;;;;;;;6.05;3.63;;;;;;;14.03;29.02;97380.91;4919274;29;20048;-82
2022/03/01 10:58:01;;;;;;;6.20;4.20;;;;;;;13.82;23.45;97375.16;4919368;29;20055;-82
2022/03/01 11:00:28;;;;;;;7.40;4.22;;;;;;;14.06;25.61;97385.78;4916413;29;20108;-82
2022/03/01 11:02:57;;;;;;;8.65;4.15;;;;;;;13.72;25.83;97375.44;4909146;29;20048;-81
2022/03/01 11:05:24;;;;;;;7.00;4.40;;;;;;;13.94;25.01;97371.88;4915895;29;20052;-82
2022/03/01 11:07:53;;;;;;;9.18;4.85;;;;;;;13.88;25.67;97367.63;4916706;29;20074;-83
2022/03/01 11:10:21;;;;;;;6.63;4.30;;;;;;;13.55;26.10;97364.38;4916211;29;20111;-82
2022/03/01 11:12:49;;;;;;;9.80;4.63;;;;;;;13.05;28.29;97351.63;4916682;29;20044;-82
2022/03/01 11:15:24;;;;;;;7.72;5.00;;;;;;;12.32;26.78;97346.41;4919695;29;20143;-83
2022/03/01 11:18:01;;;;;;;8.77;4.90;;;;;;;12.17;24.74;97331.97;4919771;29;20060;-83
2022/03/01 11:20:35;;;;;;;6.60;4.45;;;;;;;12.18;26.56;97333.59;4919998;29;20248;-81
2022/03/01 11:23:06;;;;;;;7.38;4.35;;;;;;;12.42;27.00;97327.88;4917591;29;20127;-82
2022/03/01 11:25:38;;;;;;;8.63;4.07;;;;;;;12.51;28.13;97325.25;4918696;29;20047;-82
2022/03/01 11:28:08;;;;;;;8.32;4.97;;;;;;;12.36;26.46;97317.38;4913104;29;20040;-83
2022/03/01 11:30:36;;;;;;;8.25;4.10;;;;;;;12.36;27.63;97309.97;4917448;29;20052;-81
2022/03/01 11:33:04;;;;;;;6.60;4.40;;;;;;;12.08;26.60;97306.47;4916149;29;20131;-81
2022/03/01 11:35:34;;;;;;;7.55;4.55;;;;;;;11.85;28.67;97302.03;4917779;29;20072;-81
2022/03/01 11:38:35;;;;;;;7.40;4.47;;;;;;;11.83;28.07;97293.34;4909062;29;20060;-83
2022/03/01 11:41:10;;;;;;;8.73;5.07;;;;;;;11.72;27.38;97288.06;4903636;23;20462;-81